INFORMACIÓN METAR y TAF
METAR FOR EHAM
ADDS - METARS form results

(2208 UTC 13 August 2022)
Data provider http://aviationweather.gov/metar/data/
 
METAR text: EHAM 132155Z 05002KT CAVOK 20/16 Q1013 NOSIG
Conditions at: EHAM (AMSTERDAM/SCHIPH, NL) observed 2155 UTC 13 August 2022
Temperature: 20.0°C (68°F)
Dewpoint: 16.0°C (61°F) [RH = 78%]
Pressure (altimeter): 29.91 inches Hg (1013.0 mb)
Winds: from the NE (50 degrees) at 2 MPH (2 knots; 1.0 m/s)
Visibility: 6 or more miles (10+ km)
Ceiling: ceiling and visibility are OK
Clouds: unknown
Weather: no significant weather observed at this time

METAR text: EHAM 132125Z 03003KT 010V080 CAVOK 20/16 Q1013 NOSIG
Conditions at: EHAM (AMSTERDAM/SCHIPH, NL) observed 2125 UTC 13 August 2022
Temperature: 20.0°C (68°F)
Dewpoint: 16.0°C (61°F) [RH = 78%]
Pressure (altimeter): 29.91 inches Hg (1013.0 mb)
Winds: from the NNE (30 degrees) at 3 MPH (3 knots; 1.5 m/s)
Visibility: 6 or more miles (10+ km)
Ceiling: ceiling and visibility are OK
Clouds: unknown
Weather: no significant weather observed at this time

Forecast for: EHAM (AMSTERDAM/SCHIPH, NL)
Text: TAF EHAM 131709Z 1318/1424 06006KT CAVOK
Forecast period: 1800 UTC 13 August 2022 to 0200 UTC 14 August 2022
Forecast type: FROM: standard forecast or significant change
Winds: from the ENE (60 degrees) at 7 MPH (6 knots; 3.1 m/s)
Visibility: 6 or more miles (10+ km)
Ceiling: unknown
Clouds: missing
Weather: NSW  (no significant weather)
Text: BECMG 1402/1405 11010KT
Forecast period: 0200 to 1500 UTC 14 August 2022
Forecast type: BECOMING: Conditions expected to become as follows by 0500 UTC 14 August 2022
Winds: from the ESE (110 degrees) at 12 MPH (10 knots; 5.1 m/s)
Visibility: 6 or more miles (10+ km)
Ceiling: unknown
Clouds: missing
Weather: NSW  (no significant weather)
Text: BECMG 1415/1417 05010KT
Forecast period: 1500 UTC 14 August 2022 to 0000 UTC 15 August 2022
Forecast type: BECOMING: Conditions expected to become as follows by 1700 UTC 14 August 2022
Winds: from the NE (50 degrees) at 12 MPH (10 knots; 5.1 m/s)
Visibility: 6 or more miles (10+ km)
Ceiling: unknown
Clouds: missing
Weather: NSW  (no significant weather)

 MAPA DE AEROPUERTO

 INFORMACIÓN DE PISTA